Prentiss, North Carolina
Current Conditions -  °F | °C
As of 2:55 PM on Thursday 23 Oct 2014 (Local Time) from KRHP Reporting Station
Clear Clear  
Wind Chill: 64°   Ceiling: Unl
Heat Index: 64°   Visibility: 10mi
Dew Point: 42°   Wind: 7mph
Humidity: 45%   Direction: 250°WSW
Pressure: 30.06"   Gusts: NA
Location:  35.1737°N, 83.4215°W
Report Text: KRHP 231855Z AUTO 25006KT 10SM CLR 18/06 A3006 RMK AO2 T01790058
Loading
Personal Weather Stations






























Interactive Weather Map
Tropical Storm Tracking
New forecast layout! Learn more

10-Day Weather Forecast

Advertisements
Track Severe Weather on mobile